sensor_id;sensor_type;location;lat;lon;timestamp;P1;P2;P0
29062;PMS5003;71206;48.564;-123.458;2024-03-02T00:01:35;1;1;
29062;PMS5003;71206;48.564;-123.458;2024-03-02T00:04:05;2;2;
29062;PMS5003;71206;48.564;-123.458;2024-03-02T00:06:25;1;1;
29062;PMS5003;71206;48.564;-123.458;2024-03-02T00:08:51;17;16;
29062;PMS5003;71206;48.564;-123.458;2024-03-02T00:11:16;10;10;
29062;PMS5003;71206;48.564;-123.458;2024-03-02T00:13:41;16;13;
29062;PMS5003;71206;48.564;-123.458;2024-03-02T00:16:12;3;2;
29062;PMS5003;71206;48.564;-123.458;2024-03-02T00:18:33;10;9;
29062;PMS5003;71206;48.564;-123.458;2024-03-02T00:20:59;8;6;
29062;PMS5003;71206;48.564;-123.458;2024-03-02T00:23:23;7;5;
29062;PMS5003;71206;48.564;-123.458;2024-03-02T00:25:50;7;5;
29062;PMS5003;71206;48.564;-123.458;2024-03-02T00:28:16;12;11;
29062;PMS5003;71206;48.564;-123.458;2024-03-02T00:33:05;6;6;
29062;PMS5003;71206;48.564;-123.458;2024-03-02T00:35:29;3;3;
29062;PMS5003;71206;48.564;-123.458;2024-03-02T00:37:54;4;3;
29062;PMS5003;71206;48.564;-123.458;2024-03-02T00:40:20;4;4;
29062;PMS5003;71206;48.564;-123.458;2024-03-02T00:42:45;4;3;
29062;PMS5003;71206;48.564;-123.458;2024-03-02T00:45:14;7;5;
29062;PMS5003;71206;48.564;-123.458;2024-03-02T00:47:37;2;2;
29062;PMS5003;71206;48.564;-123.458;2024-03-02T00:50:01;2;2;
29062;PMS5003;71206;48.564;-123.458;2024-03-02T00:52:26;8;7;
29062;PMS5003;71206;48.564;-123.458;2024-03-02T00:54:51;7;7;
29062;PMS5003;71206;48.564;-123.458;2024-03-02T00:57:16;7;7;
29062;PMS5003;71206;48.564;-123.458;2024-03-02T00:59:41;4;4;
29062;PMS5003;71206;48.564;-123.458;2024-03-02T01:02:07;1;1;
29062;PMS5003;71206;48.564;-123.458;2024-03-02T01:04:32;2;1;
29062;PMS5003;71206;48.564;-123.458;2024-03-02T01:06:57;2;0;
29062;PMS5003;71206;48.564;-123.458;2024-03-02T01:09:23;1;1;
29062;PMS5003;71206;48.564;-123.458;2024-03-02T01:11:48;1;1;
29062;PMS5003;71206;48.564;-123.458;2024-03-02T01:14:13;1;0;
29062;PMS5003;71206;48.564;-123.458;2024-03-02T01:16:39;1;1;
29062;PMS5003;71206;48.564;-123.458;2024-03-02T01:19:06;0;0;
29062;PMS5003;71206;48.564;-123.458;2024-03-02T01:21:29;1;0;
29062;PMS5003;71206;48.564;-123.458;2024-03-02T01:23:55;2;1;
29062;PMS5003;71206;48.564;-123.458;2024-03-02T01:26:20;0;0;
29062;PMS5003;71206;48.564;-123.458;2024-03-02T01:28:45;1;1;
29062;PMS5003;71206;48.564;-123.458;2024-03-02T01:31:11;0;0;
29062;PMS5003;71206;48.564;-123.458;2024-03-02T01:33:36;1;1;
29062;PMS5003;71206;48.564;-123.458;2024-03-02T01:36:02;1;1;
29062;PMS5003;71206;48.564;-123.458;2024-03-02T01:38:27;0;0;
29062;PMS5003;71206;48.564;-123.458;2024-03-02T01:40:53;1;1;
29062;PMS5003;71206;48.564;-123.458;2024-03-02T01:43:19;0;0;
29062;PMS5003;71206;48.564;-123.458;2024-03-02T01:45:43;1;1;
29062;PMS5003;71206;48.564;-123.458;2024-03-02T01:48:08;2;1;
29062;PMS5003;71206;48.564;-123.458;2024-03-02T01:50:34;1;1;
29062;PMS5003;71206;48.564;-123.458;2024-03-02T01:53:00;1;1;
29062;PMS5003;71206;48.564;-123.458;2024-03-02T01:55:29;1;1;
29062;PMS5003;71206;48.564;-123.458;2024-03-02T01:57:50;3;1;
29062;PMS5003;71206;48.564;-123.458;2024-03-02T02:00:16;6;2;
29062;PMS5003;71206;48.564;-123.458;2024-03-02T02:02:43;2;1;
29062;PMS5003;71206;48.564;-123.458;2024-03-02T02:05:07;3;2;
29062;PMS5003;71206;48.564;-123.458;2024-03-02T02:07:32;5;3;
29062;PMS5003;71206;48.564;-123.458;2024-03-02T02:09:57;6;5;
29062;PMS5003;71206;48.564;-123.458;2024-03-02T02:12:22;6;5;
29062;PMS5003;71206;48.564;-123.458;2024-03-02T02:14:48;8;7;
29062;PMS5003;71206;48.564;-123.458;2024-03-02T02:17:14;8;8;
29062;PMS5003;71206;48.564;-123.458;2024-03-02T02:19:40;10;10;
29062;PMS5003;71206;48.564;-123.458;2024-03-02T02:22:08;11;11;
29062;PMS5003;71206;48.564;-123.458;2024-03-02T02:24:29;11;10;
29062;PMS5003;71206;48.564;-123.458;2024-03-02T02:26:55;11;8;
29062;PMS5003;71206;48.564;-123.458;2024-03-02T02:29:20;11;11;
29062;PMS5003;71206;48.564;-123.458;2024-03-02T02:31:47;15;12;
29062;PMS5003;71206;48.564;-123.458;2024-03-02T02:34:11;15;12;
29062;PMS5003;71206;48.564;-123.458;2024-03-02T02:36:37;14;12;
29062;PMS5003;71206;48.564;-123.458;2024-03-02T02:39:03;14;14;
29062;PMS5003;71206;48.564;-123.458;2024-03-02T02:41:27;23;21;
29062;PMS5003;71206;48.564;-123.458;2024-03-02T02:43:53;26;22;
29062;PMS5003;71206;48.564;-123.458;2024-03-02T02:46:18;41;41;
29062;PMS5003;71206;48.564;-123.458;2024-03-02T02:48:44;51;51;
29062;PMS5003;71206;48.564;-123.458;2024-03-02T02:51:09;28;28;
29062;PMS5003;71206;48.564;-123.458;2024-03-02T02:53:34;11;11;
29062;PMS5003;71206;48.564;-123.458;2024-03-02T02:56:00;20;20;
29062;PMS5003;71206;48.564;-123.458;2024-03-02T02:58:25;21;19;
29062;PMS5003;71206;48.564;-123.458;2024-03-02T03:00:51;19;19;
29062;PMS5003;71206;48.564;-123.458;2024-03-02T03:03:16;21;21;
29062;PMS5003;71206;48.564;-123.458;2024-03-02T03:05:42;30;27;
29062;PMS5003;71206;48.564;-123.458;2024-03-02T03:08:07;61;61;
29062;PMS5003;71206;48.564;-123.458;2024-03-02T03:10:33;42;40;
29062;PMS5003;71206;48.564;-123.458;2024-03-02T03:12:58;37;36;
29062;PMS5003;71206;48.564;-123.458;2024-03-02T03:15:24;49;40;
29062;PMS5003;71206;48.564;-123.458;2024-03-02T03:17:52;62;57;
29062;PMS5003;71206;48.564;-123.458;2024-03-02T03:20:15;38;36;
29062;PMS5003;71206;48.564;-123.458;2024-03-02T03:22:39;30;29;
29062;PMS5003;71206;48.564;-123.458;2024-03-02T03:25:06;53;46;
29062;PMS5003;71206;48.564;-123.458;2024-03-02T03:27:31;45;37;
29062;PMS5003;71206;48.564;-123.458;2024-03-02T03:29:56;37;36;
29062;PMS5003;71206;48.564;-123.458;2024-03-02T03:32:21;37;33;
29062;PMS5003;71206;48.564;-123.458;2024-03-02T03:34:46;40;37;
29062;PMS5003;71206;48.564;-123.458;2024-03-02T03:37:14;37;34;
29062;PMS5003;71206;48.564;-123.458;2024-03-02T03:39:37;59;58;
29062;PMS5003;71206;48.564;-123.458;2024-03-02T03:42:03;46;45;
29062;PMS5003;71206;48.564;-123.458;2024-03-02T03:44:28;36;36;
29062;PMS5003;71206;48.564;-123.458;2024-03-02T03:46:54;41;38;
29062;PMS5003;71206;48.564;-123.458;2024-03-02T03:49:19;43;42;
29062;PMS5003;71206;48.564;-123.458;2024-03-02T03:51:45;71;68;
29062;PMS5003;71206;48.564;-123.458;2024-03-02T03:54:10;23;20;
29062;PMS5003;71206;48.564;-123.458;2024-03-02T03:56:36;22;16;
29062;PMS5003;71206;48.564;-123.458;2024-03-02T03:59:04;75;67;
29062;PMS5003;71206;48.564;-123.458;2024-03-02T04:01:27;66;60;
29062;PMS5003;71206;48.564;-123.458;2024-03-02T04:03:52;66;60;
29062;PMS5003;71206;48.564;-123.458;2024-03-02T04:06:17;70;67;
29062;PMS5003;71206;48.564;-123.458;2024-03-02T04:08:43;58;54;
29062;PMS5003;71206;48.564;-123.458;2024-03-02T04:11:08;62;58;
29062;PMS5003;71206;48.564;-123.458;2024-03-02T04:13:34;78;72;
29062;PMS5003;71206;48.564;-123.458;2024-03-02T04:15:59;91;82;
29062;PMS5003;71206;48.564;-123.458;2024-03-02T04:18:25;49;44;
29062;PMS5003;71206;48.564;-123.458;2024-03-02T04:20:51;39;32;
29062;PMS5003;71206;48.564;-123.458;2024-03-02T04:23:16;63;62;
29062;PMS5003;71206;48.564;-123.458;2024-03-02T04:25:41;38;33;
29062;PMS5003;71206;48.564;-123.458;2024-03-02T04:28:06;77;72;
29062;PMS5003;71206;48.564;-123.458;2024-03-02T04:30:32;32;29;
29062;PMS5003;71206;48.564;-123.458;2024-03-02T04:32:59;49;45;
29062;PMS5003;71206;48.564;-123.458;2024-03-02T04:35:25;42;41;
29062;PMS5003;71206;48.564;-123.458;2024-03-02T04:37:49;41;38;
29062;PMS5003;71206;48.564;-123.458;2024-03-02T04:40:14;23;22;
29062;PMS5003;71206;48.564;-123.458;2024-03-02T04:42:40;63;63;
29062;PMS5003;71206;48.564;-123.458;2024-03-02T04:45:05;22;22;
29062;PMS5003;71206;48.564;-123.458;2024-03-02T04:47:30;10;10;
29062;PMS5003;71206;48.564;-123.458;2024-03-02T04:49:56;12;10;
29062;PMS5003;71206;48.564;-123.458;2024-03-02T04:52:23;20;18;
29062;PMS5003;71206;48.564;-123.458;2024-03-02T04:54:49;47;47;
29062;PMS5003;71206;48.564;-123.458;2024-03-02T04:57:13;68;68;
29062;PMS5003;71206;48.564;-123.458;2024-03-02T04:59:39;38;36;
29062;PMS5003;71206;48.564;-123.458;2024-03-02T05:02:04;60;59;
29062;PMS5003;71206;48.564;-123.458;2024-03-02T05:04:29;56;56;
29062;PMS5003;71206;48.564;-123.458;2024-03-02T05:06:54;57;56;
29062;PMS5003;71206;48.564;-123.458;2024-03-02T05:09:20;74;73;
29062;PMS5003;71206;48.564;-123.458;2024-03-02T05:11:45;69;65;
29062;PMS5003;71206;48.564;-123.458;2024-03-02T05:14:12;52;51;
29062;PMS5003;71206;48.564;-123.458;2024-03-02T05:16:36;70;65;
29062;PMS5003;71206;48.564;-123.458;2024-03-02T05:19:01;25;23;
29062;PMS5003;71206;48.564;-123.458;2024-03-02T05:21:26;25;20;
29062;PMS5003;71206;48.564;-123.458;2024-03-02T05:23:52;21;21;
29062;PMS5003;71206;48.564;-123.458;2024-03-02T05:26:17;95;79;
29062;PMS5003;71206;48.564;-123.458;2024-03-02T05:28:43;30;29;
29062;PMS5003;71206;48.564;-123.458;2024-03-02T05:31:10;28;28;
29062;PMS5003;71206;48.564;-123.458;2024-03-02T05:33:36;37;35;
29062;PMS5003;71206;48.564;-123.458;2024-03-02T05:35:59;48;46;
29062;PMS5003;71206;48.564;-123.458;2024-03-02T05:38:27;30;26;
29062;PMS5003;71206;48.564;-123.458;2024-03-02T05:40:50;38;35;
29062;PMS5003;71206;48.564;-123.458;2024-03-02T05:43:15;20;19;
29062;PMS5003;71206;48.564;-123.458;2024-03-02T05:45:42;18;18;
29062;PMS5003;71206;48.564;-123.458;2024-03-02T05:48:07;23;23;
29062;PMS5003;71206;48.564;-123.458;2024-03-02T05:50:32;21;21;
29062;PMS5003;71206;48.564;-123.458;2024-03-02T05:52:57;15;15;
29062;PMS5003;71206;48.564;-123.458;2024-03-02T05:55:23;15;15;
29062;PMS5003;71206;48.564;-123.458;2024-03-02T05:57:48;34;34;
29062;PMS5003;71206;48.564;-123.458;2024-03-02T06:00:14;21;21;
29062;PMS5003;71206;48.564;-123.458;2024-03-02T06:02:39;17;16;
29062;PMS5003;71206;48.564;-123.458;2024-03-02T06:05:05;22;22;
29062;PMS5003;71206;48.564;-123.458;2024-03-02T06:07:30;20;20;
29062;PMS5003;71206;48.564;-123.458;2024-03-02T06:09:55;42;39;
29062;PMS5003;71206;48.564;-123.458;2024-03-02T06:12:21;11;11;
29062;PMS5003;71206;48.564;-123.458;2024-03-02T06:14:46;28;28;
29062;PMS5003;71206;48.564;-123.458;2024-03-02T06:17:11;37;34;
29062;PMS5003;71206;48.564;-123.458;2024-03-02T06:19:36;35;34;
29062;PMS5003;71206;48.564;-123.458;2024-03-02T06:22:02;30;28;
29062;PMS5003;71206;48.564;-123.458;2024-03-02T06:24:28;42;38;
29062;PMS5003;71206;48.564;-123.458;2024-03-02T06:26:53;42;42;
29062;PMS5003;71206;48.564;-123.458;2024-03-02T06:29:19;63;61;
29062;PMS5003;71206;48.564;-123.458;2024-03-02T06:31:45;61;61;
29062;PMS5003;71206;48.564;-123.458;2024-03-02T06:34:14;74;72;
29062;PMS5003;71206;48.564;-123.458;2024-03-02T06:36:35;79;79;
29062;PMS5003;71206;48.564;-123.458;2024-03-02T06:39:03;67;67;
29062;PMS5003;71206;48.564;-123.458;2024-03-02T06:41:26;33;32;
29062;PMS5003;71206;48.564;-123.458;2024-03-02T06:43:55;62;62;
29062;PMS5003;71206;48.564;-123.458;2024-03-02T06:46:17;60;56;
29062;PMS5003;71206;48.564;-123.458;2024-03-02T06:48:43;34;32;
29062;PMS5003;71206;48.564;-123.458;2024-03-02T06:51:08;32;29;
29062;PMS5003;71206;48.564;-123.458;2024-03-02T06:53:33;33;28;
29062;PMS5003;71206;48.564;-123.458;2024-03-02T06:55:59;24;23;
29062;PMS5003;71206;48.564;-123.458;2024-03-02T06:58:24;24;24;
29062;PMS5003;71206;48.564;-123.458;2024-03-02T07:00:50;29;25;
29062;PMS5003;71206;48.564;-123.458;2024-03-02T07:03:15;28;25;
29062;PMS5003;71206;48.564;-123.458;2024-03-02T07:05:41;32;30;
29062;PMS5003;71206;48.564;-123.458;2024-03-02T07:08:07;33;32;
29062;PMS5003;71206;48.564;-123.458;2024-03-02T07:10:33;83;82;
29062;PMS5003;71206;48.564;-123.458;2024-03-02T07:12:58;49;45;
29062;PMS5003;71206;48.564;-123.458;2024-03-02T07:15:25;30;28;
29062;PMS5003;71206;48.564;-123.458;2024-03-02T07:17:50;81;77;
29062;PMS5003;71206;48.564;-123.458;2024-03-02T07:20:14;69;69;
29062;PMS5003;71206;48.564;-123.458;2024-03-02T07:22:39;40;37;
29062;PMS5003;71206;48.564;-123.458;2024-03-02T07:25:05;24;24;
29062;PMS5003;71206;48.564;-123.458;2024-03-02T07:27:35;28;27;
29062;PMS5003;71206;48.564;-123.458;2024-03-02T07:29:55;32;31;
29062;PMS5003;71206;48.564;-123.458;2024-03-02T07:32:23;15;15;
29062;PMS5003;71206;48.564;-123.458;2024-03-02T07:34:47;17;17;
29062;PMS5003;71206;48.564;-123.458;2024-03-02T07:37:12;42;35;
29062;PMS5003;71206;48.564;-123.458;2024-03-02T07:39:37;38;32;
29062;PMS5003;71206;48.564;-123.458;2024-03-02T07:42:04;18;15;
29062;PMS5003;71206;48.564;-123.458;2024-03-02T07:44:29;30;23;
29062;PMS5003;71206;48.564;-123.458;2024-03-02T07:46:55;19;17;
29062;PMS5003;71206;48.564;-123.458;2024-03-02T07:49:20;16;15;
29062;PMS5003;71206;48.564;-123.458;2024-03-02T07:51:45;11;10;
29062;PMS5003;71206;48.564;-123.458;2024-03-02T07:54:10;16;15;
29062;PMS5003;71206;48.564;-123.458;2024-03-02T07:56:36;15;14;
29062;PMS5003;71206;48.564;-123.458;2024-03-02T07:59:01;11;10;
29062;PMS5003;71206;48.564;-123.458;2024-03-02T08:01:27;15;14;
29062;PMS5003;71206;48.564;-123.458;2024-03-02T08:03:53;39;36;
29062;PMS5003;71206;48.564;-123.458;2024-03-02T08:06:18;31;25;
29062;PMS5003;71206;48.564;-123.458;2024-03-02T08:08:43;18;16;
29062;PMS5003;71206;48.564;-123.458;2024-03-02T08:11:12;14;11;
29062;PMS5003;71206;48.564;-123.458;2024-03-02T08:13:34;10;9;
29062;PMS5003;71206;48.564;-123.458;2024-03-02T08:15:59;9;9;
29062;PMS5003;71206;48.564;-123.458;2024-03-02T08:18:26;10;10;
29062;PMS5003;71206;48.564;-123.458;2024-03-02T08:20:50;15;13;
29062;PMS5003;71206;48.564;-123.458;2024-03-02T08:23:15;15;13;
29062;PMS5003;71206;48.564;-123.458;2024-03-02T08:25:41;14;11;
29062;PMS5003;71206;48.564;-123.458;2024-03-02T08:28:06;9;9;
29062;PMS5003;71206;48.564;-123.458;2024-03-02T08:30:32;7;6;
29062;PMS5003;71206;48.564;-123.458;2024-03-02T08:32:57;67;55;
29062;PMS5003;71206;48.564;-123.458;2024-03-02T08:35:22;58;54;
29062;PMS5003;71206;48.564;-123.458;2024-03-02T08:37:48;39;36;
29062;PMS5003;71206;48.564;-123.458;2024-03-02T08:40:13;29;27;
29062;PMS5003;71206;48.564;-123.458;2024-03-02T08:42:40;20;19;
29062;PMS5003;71206;48.564;-123.458;2024-03-02T08:45:04;11;9;
29062;PMS5003;71206;48.564;-123.458;2024-03-02T08:47:30;23;23;
29062;PMS5003;71206;48.564;-123.458;2024-03-02T08:49:55;21;21;
29062;PMS5003;71206;48.564;-123.458;2024-03-02T08:52:21;18;16;
29062;PMS5003;71206;48.564;-123.458;2024-03-02T08:54:55;9;7;
29062;PMS5003;71206;48.564;-123.458;2024-03-02T08:57:12;15;14;
29062;PMS5003;71206;48.564;-123.458;2024-03-02T08:59:37;12;11;
29062;PMS5003;71206;48.564;-123.458;2024-03-02T09:02:03;15;15;
29062;PMS5003;71206;48.564;-123.458;2024-03-02T09:04:28;16;16;
29062;PMS5003;71206;48.564;-123.458;2024-03-02T09:06:53;18;18;
29062;PMS5003;71206;48.564;-123.458;2024-03-02T09:09:20;19;19;
29062;PMS5003;71206;48.564;-123.458;2024-03-02T09:11:45;21;21;
29062;PMS5003;71206;48.564;-123.458;2024-03-02T09:14:09;19;16;
29062;PMS5003;71206;48.564;-123.458;2024-03-02T09:16:35;60;60;
29062;PMS5003;71206;48.564;-123.458;2024-03-02T09:19:01;29;29;
29062;PMS5003;71206;48.564;-123.458;2024-03-02T09:21:26;14;14;
29062;PMS5003;71206;48.564;-123.458;2024-03-02T09:23:51;2;2;
29062;PMS5003;71206;48.564;-123.458;2024-03-02T09:26:17;2;1;
29062;PMS5003;71206;48.564;-123.458;2024-03-02T09:28:43;3;1;
29062;PMS5003;71206;48.564;-123.458;2024-03-02T09:31:08;1;1;
29062;PMS5003;71206;48.564;-123.458;2024-03-02T09:33:35;2;2;
29062;PMS5003;71206;48.564;-123.458;2024-03-02T09:35:58;1;1;
29062;PMS5003;71206;48.564;-123.458;2024-03-02T09:38:27;5;5;
29062;PMS5003;71206;48.564;-123.458;2024-03-02T09:40:49;12;12;
29062;PMS5003;71206;48.564;-123.458;2024-03-02T09:43:15;20;20;
29062;PMS5003;71206;48.564;-123.458;2024-03-02T09:45:40;19;19;
29062;PMS5003;71206;48.564;-123.458;2024-03-02T09:48:06;15;15;
29062;PMS5003;71206;48.564;-123.458;2024-03-02T09:50:32;14;12;
29062;PMS5003;71206;48.564;-123.458;2024-03-02T09:52:57;7;7;
29062;PMS5003;71206;48.564;-123.458;2024-03-02T09:55:22;7;6;
29062;PMS5003;71206;48.564;-123.458;2024-03-02T09:57:47;5;5;
29062;PMS5003;71206;48.564;-123.458;2024-03-02T10:00:13;5;3;
29062;PMS5003;71206;48.564;-123.458;2024-03-02T10:02:38;2;2;
29062;PMS5003;71206;48.564;-123.458;2024-03-02T10:05:04;3;3;
29062;PMS5003;71206;48.564;-123.458;2024-03-02T10:07:29;3;2;
29062;PMS5003;71206;48.564;-123.458;2024-03-02T10:09:54;1;1;
29062;PMS5003;71206;48.564;-123.458;2024-03-02T10:12:20;2;1;
29062;PMS5003;71206;48.564;-123.458;2024-03-02T10:14:45;2;2;
29062;PMS5003;71206;48.564;-123.458;2024-03-02T10:17:11;2;2;
29062;PMS5003;71206;48.564;-123.458;2024-03-02T10:19:36;1;1;
29062;PMS5003;71206;48.564;-123.458;2024-03-02T10:22:02;1;1;
29062;PMS5003;71206;48.564;-123.458;2024-03-02T10:24:27;2;2;
29062;PMS5003;71206;48.564;-123.458;2024-03-02T10:26:53;1;0;
29062;PMS5003;71206;48.564;-123.458;2024-03-02T10:29:18;2;1;
29062;PMS5003;71206;48.564;-123.458;2024-03-02T10:31:44;1;0;
29062;PMS5003;71206;48.564;-123.458;2024-03-02T10:34:09;0;0;
29062;PMS5003;71206;48.564;-123.458;2024-03-02T10:36:34;0;0;
29062;PMS5003;71206;48.564;-123.458;2024-03-02T10:39:01;0;0;
29062;PMS5003;71206;48.564;-123.458;2024-03-02T10:41:26;0;0;
29062;PMS5003;71206;48.564;-123.458;2024-03-02T10:43:51;0;0;
29062;PMS5003;71206;48.564;-123.458;2024-03-02T10:46:16;1;0;
29062;PMS5003;71206;48.564;-123.458;2024-03-02T10:48:41;0;0;
29062;PMS5003;71206;48.564;-123.458;2024-03-02T10:51:06;1;0;
29062;PMS5003;71206;48.564;-123.458;2024-03-02T10:53:32;0;0;
29062;PMS5003;71206;48.564;-123.458;2024-03-02T10:55:58;0;0;
29062;PMS5003;71206;48.564;-123.458;2024-03-02T10:58:23;0;0;
29062;PMS5003;71206;48.564;-123.458;2024-03-02T11:00:48;0;0;
29062;PMS5003;71206;48.564;-123.458;2024-03-02T11:03:13;0;0;
29062;PMS5003;71206;48.564;-123.458;2024-03-02T11:05:40;2;2;
29062;PMS5003;71206;48.564;-123.458;2024-03-02T11:08:11;1;1;
29062;PMS5003;71206;48.564;-123.458;2024-03-02T11:10:34;0;0;
29062;PMS5003;71206;48.564;-123.458;2024-03-02T11:12:57;2;2;
29062;PMS5003;71206;48.564;-123.458;2024-03-02T11:15:21;0;0;
29062;PMS5003;71206;48.564;-123.458;2024-03-02T11:17:46;2;1;
29062;PMS5003;71206;48.564;-123.458;2024-03-02T11:20:11;0;0;
29062;PMS5003;71206;48.564;-123.458;2024-03-02T11:22:37;0;0;
29062;PMS5003;71206;48.564;-123.458;2024-03-02T11:25:04;0;0;
29062;PMS5003;71206;48.564;-123.458;2024-03-02T11:29:53;0;0;
29062;PMS5003;71206;48.564;-123.458;2024-03-02T11:32:20;0;0;
29062;PMS5003;71206;48.564;-123.458;2024-03-02T11:34:45;0;0;
29062;PMS5003;71206;48.564;-123.458;2024-03-02T11:37:09;0;0;
29062;PMS5003;71206;48.564;-123.458;2024-03-02T11:39:35;0;0;
29062;PMS5003;71206;48.564;-123.458;2024-03-02T11:42:00;0;0;
29062;PMS5003;71206;48.564;-123.458;2024-03-02T11:44:26;0;0;
29062;PMS5003;71206;48.564;-123.458;2024-03-02T11:46:52;0;0;
29062;PMS5003;71206;48.564;-123.458;2024-03-02T11:49:20;0;0;
29062;PMS5003;71206;48.564;-123.458;2024-03-02T11:54:07;0;0;
29062;PMS5003;71206;48.564;-123.458;2024-03-02T11:56:32;0;0;
29062;PMS5003;71206;48.564;-123.458;2024-03-02T11:58:58;0;0;
29062;PMS5003;71206;48.564;-123.458;2024-03-02T12:01:24;0;0;
29062;PMS5003;71206;48.564;-123.458;2024-03-02T12:03:54;0;0;
29062;PMS5003;71206;48.564;-123.458;2024-03-02T12:06:14;0;0;
29062;PMS5003;71206;48.564;-123.458;2024-03-02T12:08:40;0;0;
29062;PMS5003;71206;48.564;-123.458;2024-03-02T12:11:05;1;0;
29062;PMS5003;71206;48.564;-123.458;2024-03-02T12:13:30;0;0;
29062;PMS5003;71206;48.564;-123.458;2024-03-02T12:15:58;0;0;
29062;PMS5003;71206;48.564;-123.458;2024-03-02T12:18:22;0;0;
29062;PMS5003;71206;48.564;-123.458;2024-03-02T12:20:48;0;0;
29062;PMS5003;71206;48.564;-123.458;2024-03-02T12:23:12;0;0;
29062;PMS5003;71206;48.564;-123.458;2024-03-02T12:25:37;0;0;
29062;PMS5003;71206;48.564;-123.458;2024-03-02T12:28:05;0;0;
29062;PMS5003;71206;48.564;-123.458;2024-03-02T12:30:29;1;1;
29062;PMS5003;71206;48.564;-123.458;2024-03-02T12:32:55;0;0;
29062;PMS5003;71206;48.564;-123.458;2024-03-02T12:35:19;0;0;
29062;PMS5003;71206;48.564;-123.458;2024-03-02T12:37:45;0;0;
29062;PMS5003;71206;48.564;-123.458;2024-03-02T12:40:11;0;0;
29062;PMS5003;71206;48.564;-123.458;2024-03-02T12:42:36;0;0;
29062;PMS5003;71206;48.564;-123.458;2024-03-02T12:45:01;0;0;
29062;PMS5003;71206;48.564;-123.458;2024-03-02T12:47:26;1;1;
29062;PMS5003;71206;48.564;-123.458;2024-03-02T12:49:53;1;0;
29062;PMS5003;71206;48.564;-123.458;2024-03-02T12:52:17;0;0;
29062;PMS5003;71206;48.564;-123.458;2024-03-02T12:54:43;1;1;
29062;PMS5003;71206;48.564;-123.458;2024-03-02T12:57:08;0;0;
29062;PMS5003;71206;48.564;-123.458;2024-03-02T12:59:34;1;1;
29062;PMS5003;71206;48.564;-123.458;2024-03-02T13:01:59;0;0;
29062;PMS5003;71206;48.564;-123.458;2024-03-02T13:04:25;0;0;
29062;PMS5003;71206;48.564;-123.458;2024-03-02T13:06:50;0;0;
29062;PMS5003;71206;48.564;-123.458;2024-03-02T13:09:15;1;0;
29062;PMS5003;71206;48.564;-123.458;2024-03-02T13:11:41;1;1;
29062;PMS5003;71206;48.564;-123.458;2024-03-02T13:14:06;2;2;
29062;PMS5003;71206;48.564;-123.458;2024-03-02T13:18:57;2;2;
29062;PMS5003;71206;48.564;-123.458;2024-03-02T13:21:27;6;5;
29062;PMS5003;71206;48.564;-123.458;2024-03-02T13:23:48;3;3;
29062;PMS5003;71206;48.564;-123.458;2024-03-02T13:26:13;0;0;
29062;PMS5003;71206;48.564;-123.458;2024-03-02T13:28:39;1;1;
29062;PMS5003;71206;48.564;-123.458;2024-03-02T13:31:04;2;2;
29062;PMS5003;71206;48.564;-123.458;2024-03-02T13:33:35;0;0;
29062;PMS5003;71206;48.564;-123.458;2024-03-02T13:35:55;0;0;
29062;PMS5003;71206;48.564;-123.458;2024-03-02T13:38:20;0;0;
29062;PMS5003;71206;48.564;-123.458;2024-03-02T13:40:46;2;1;
29062;PMS5003;71206;48.564;-123.458;2024-03-02T13:43:11;1;0;
29062;PMS5003;71206;48.564;-123.458;2024-03-02T13:45:36;0;0;
29062;PMS5003;71206;48.564;-123.458;2024-03-02T13:48:02;1;1;
29062;PMS5003;71206;48.564;-123.458;2024-03-02T13:50:28;1;1;
29062;PMS5003;71206;48.564;-123.458;2024-03-02T13:52:53;2;0;
29062;PMS5003;71206;48.564;-123.458;2024-03-02T13:55:18;1;1;
29062;PMS5003;71206;48.564;-123.458;2024-03-02T13:57:43;1;1;
29062;PMS5003;71206;48.564;-123.458;2024-03-02T14:00:11;3;3;
29062;PMS5003;71206;48.564;-123.458;2024-03-02T14:02:34;9;9;
29062;PMS5003;71206;48.564;-123.458;2024-03-02T14:05:00;7;7;
29062;PMS5003;71206;48.564;-123.458;2024-03-02T14:07:25;11;11;
29062;PMS5003;71206;48.564;-123.458;2024-03-02T14:09:50;21;21;
29062;PMS5003;71206;48.564;-123.458;2024-03-02T14:12:16;24;24;
29062;PMS5003;71206;48.564;-123.458;2024-03-02T14:14:42;36;36;
29062;PMS5003;71206;48.564;-123.458;2024-03-02T14:17:07;37;37;
29062;PMS5003;71206;48.564;-123.458;2024-03-02T14:19:32;38;37;
29062;PMS5003;71206;48.564;-123.458;2024-03-02T14:21:58;33;33;
29062;PMS5003;71206;48.564;-123.458;2024-03-02T14:24:24;20;20;
29062;PMS5003;71206;48.564;-123.458;2024-03-02T14:26:52;6;6;
29062;PMS5003;71206;48.564;-123.458;2024-03-02T14:29:14;1;1;
29062;PMS5003;71206;48.564;-123.458;2024-03-02T14:31:40;2;2;
29062;PMS5003;71206;48.564;-123.458;2024-03-02T14:34:05;5;5;
29062;PMS5003;71206;48.564;-123.458;2024-03-02T14:36:31;12;11;
29062;PMS5003;71206;48.564;-123.458;2024-03-02T14:38:57;19;19;
29062;PMS5003;71206;48.564;-123.458;2024-03-02T14:41:22;24;24;
29062;PMS5003;71206;48.564;-123.458;2024-03-02T14:43:48;27;25;
29062;PMS5003;71206;48.564;-123.458;2024-03-02T14:46:15;32;32;
29062;PMS5003;71206;48.564;-123.458;2024-03-02T14:48:38;33;33;
29062;PMS5003;71206;48.564;-123.458;2024-03-02T14:51:04;27;27;
29062;PMS5003;71206;48.564;-123.458;2024-03-02T14:53:30;25;21;
29062;PMS5003;71206;48.564;-123.458;2024-03-02T14:55:54;3;3;
29062;PMS5003;71206;48.564;-123.458;2024-03-02T14:58:20;2;1;
29062;PMS5003;71206;48.564;-123.458;2024-03-02T15:00:45;0;0;
29062;PMS5003;71206;48.564;-123.458;2024-03-02T15:03:10;3;1;
29062;PMS5003;71206;48.564;-123.458;2024-03-02T15:05:39;1;1;
29062;PMS5003;71206;48.564;-123.458;2024-03-02T15:08:02;2;1;
29062;PMS5003;71206;48.564;-123.458;2024-03-02T15:10:27;2;2;
29062;PMS5003;71206;48.564;-123.458;2024-03-02T15:12:52;3;2;
29062;PMS5003;71206;48.564;-123.458;2024-03-02T15:15:17;1;0;
29062;PMS5003;71206;48.564;-123.458;2024-03-02T15:17:43;0;0;
29062;PMS5003;71206;48.564;-123.458;2024-03-02T15:20:09;0;0;
29062;PMS5003;71206;48.564;-123.458;2024-03-02T15:22:35;1;1;
29062;PMS5003;71206;48.564;-123.458;2024-03-02T15:24:59;2;2;
29062;PMS5003;71206;48.564;-123.458;2024-03-02T15:27:25;2;1;
29062;PMS5003;71206;48.564;-123.458;2024-03-02T15:29:50;2;1;
29062;PMS5003;71206;48.564;-123.458;2024-03-02T15:32:16;3;1;
29062;PMS5003;71206;48.564;-123.458;2024-03-02T15:34:41;3;3;
29062;PMS5003;71206;48.564;-123.458;2024-03-02T15:37:07;5;5;
29062;PMS5003;71206;48.564;-123.458;2024-03-02T15:39:32;5;3;
29062;PMS5003;71206;48.564;-123.458;2024-03-02T15:41:57;7;6;
29062;PMS5003;71206;48.564;-123.458;2024-03-02T15:44:23;1;1;